sensor_id;sensor_type;location;lat;lon;timestamp;pressure;altitude;pressure_sealevel;temperature;humidity
9091;BME280;4581;42.416;25.598;2023-04-23T00:02:00;66928.56;;;0.00;nan
9091;BME280;4581;42.416;25.598;2023-04-23T00:04:29;66928.56;;;0.00;nan
9091;BME280;4581;42.416;25.598;2023-04-23T00:06:59;66928.56;;;0.00;nan
9091;BME280;4581;42.416;25.598;2023-04-23T00:09:30;66925.50;;;0.00;nan
9091;BME280;4581;42.416;25.598;2023-04-23T00:11:58;66931.59;;;0.00;nan
9091;BME280;4581;42.416;25.598;2023-04-23T00:14:26;66930.06;;;0.00;nan
9091;BME280;4581;42.416;25.598;2023-04-23T00:16:53;66931.59;;;0.00;nan
9091;BME280;4581;42.416;25.598;2023-04-23T00:19:20;66936.19;;;0.00;nan
9091;BME280;4581;42.416;25.598;2023-04-23T00:21:47;66942.28;;;0.00;nan
9091;BME280;4581;42.416;25.598;2023-04-23T00:24:13;66942.28;;;0.00;nan
9091;BME280;4581;42.416;25.598;2023-04-23T00:26:40;66945.34;;;0.00;nan
9091;BME280;4581;42.416;25.598;2023-04-23T00:29:06;66952.97;;;0.00;nan
9091;BME280;4581;42.416;25.598;2023-04-23T00:31:33;66952.97;;;0.00;nan
9091;BME280;4581;42.416;25.598;2023-04-23T00:34:00;66962.13;;;0.00;nan
9091;BME280;4581;42.416;25.598;2023-04-23T00:36:27;66969.75;;;0.00;nan
9091;BME280;4581;42.416;25.598;2023-04-23T00:38:53;66981.97;;;0.00;nan
9091;BME280;4581;42.416;25.598;2023-04-23T00:41:20;66986.53;;;0.00;nan
9091;BME280;4581;42.416;25.598;2023-04-23T00:43:47;66992.63;;;0.00;nan
9091;BME280;4581;42.416;25.598;2023-04-23T00:46:15;66992.63;;;0.00;nan
9091;BME280;4581;42.416;25.598;2023-04-23T00:48:44;66998.75;;;0.00;nan
9091;BME280;4581;42.416;25.598;2023-04-23T00:51:12;67010.94;;;0.00;nan
9091;BME280;4581;42.416;25.598;2023-04-23T00:53:39;67015.53;;;0.00;nan
9091;BME280;4581;42.416;25.598;2023-04-23T00:56:05;67023.16;;;0.00;nan
9091;BME280;4581;42.416;25.598;2023-04-23T00:58:34;67026.22;;;0.00;nan
9091;BME280;4581;42.416;25.598;2023-04-23T01:01:01;67027.72;;;0.00;nan
9091;BME280;4581;42.416;25.598;2023-04-23T01:03:30;67027.72;;;0.00;nan
9091;BME280;4581;42.416;25.598;2023-04-23T01:05:58;67029.25;;;0.00;nan
9091;BME280;4581;42.416;25.598;2023-04-23T01:08:25;67026.22;;;0.00;nan
9091;BME280;4581;42.416;25.598;2023-04-23T01:10:52;67026.22;;;0.00;nan
9091;BME280;4581;42.416;25.598;2023-04-23T01:13:19;67026.22;;;0.00;nan
9091;BME280;4581;42.416;25.598;2023-04-23T01:15:47;67024.69;;;0.00;nan
9091;BME280;4581;42.416;25.598;2023-04-23T01:18:14;67021.63;;;0.00;nan
9091;BME280;4581;42.416;25.598;2023-04-23T01:20:41;67026.22;;;0.00;nan
9091;BME280;4581;42.416;25.598;2023-04-23T01:23:09;67020.09;;;0.00;nan
9091;BME280;4581;42.416;25.598;2023-04-23T01:25:36;67026.22;;;0.00;nan
9091;BME280;4581;42.416;25.598;2023-04-23T01:28:04;67023.16;;;0.00;nan
9091;BME280;4581;42.416;25.598;2023-04-23T01:30:35;67023.16;;;0.00;nan
9091;BME280;4581;42.416;25.598;2023-04-23T01:33:02;67029.25;;;0.00;nan
9091;BME280;4581;42.416;25.598;2023-04-23T01:35:30;67027.72;;;0.00;nan
9091;BME280;4581;42.416;25.598;2023-04-23T01:37:59;67029.25;;;0.00;nan
9091;BME280;4581;42.416;25.598;2023-04-23T01:40:28;67030.78;;;0.00;nan
9091;BME280;4581;42.416;25.598;2023-04-23T01:42:56;67027.72;;;0.00;nan
9091;BME280;4581;42.416;25.598;2023-04-23T01:45:23;67030.78;;;0.00;nan
9091;BME280;4581;42.416;25.598;2023-04-23T01:47:50;67021.63;;;0.00;nan
9091;BME280;4581;42.416;25.598;2023-04-23T01:50:17;67020.09;;;0.00;nan
9091;BME280;4581;42.416;25.598;2023-04-23T01:52:43;67017.06;;;0.00;nan
9091;BME280;4581;42.416;25.598;2023-04-23T01:55:11;67021.63;;;0.00;nan
9091;BME280;4581;42.416;25.598;2023-04-23T01:57:39;67026.22;;;0.00;nan
9091;BME280;4581;42.416;25.598;2023-04-23T02:00:11;67020.09;;;0.00;nan
9091;BME280;4581;42.416;25.598;2023-04-23T02:02:39;67021.63;;;0.00;nan
9091;BME280;4581;42.416;25.598;2023-04-23T02:05:17;67017.06;;;0.00;nan
9091;BME280;4581;42.416;25.598;2023-04-23T02:07:46;67023.16;;;0.00;nan
9091;BME280;4581;42.416;25.598;2023-04-23T02:10:13;67020.09;;;0.00;nan
9091;BME280;4581;42.416;25.598;2023-04-23T02:12:40;67020.09;;;0.00;nan
9091;BME280;4581;42.416;25.598;2023-04-23T02:15:08;67027.72;;;0.00;nan
9091;BME280;4581;42.416;25.598;2023-04-23T02:17:35;67026.22;;;0.00;nan
9091;BME280;4581;42.416;25.598;2023-04-23T02:20:02;67020.09;;;0.00;nan
9091;BME280;4581;42.416;25.598;2023-04-23T02:22:29;67015.53;;;0.00;nan
9091;BME280;4581;42.416;25.598;2023-04-23T02:24:57;67015.53;;;0.00;nan
9091;BME280;4581;42.416;25.598;2023-04-23T02:27:24;67010.94;;;0.00;nan
9091;BME280;4581;42.416;25.598;2023-04-23T02:29:51;67012.47;;;0.00;nan
9091;BME280;4581;42.416;25.598;2023-04-23T02:32:19;67010.94;;;0.00;nan
9091;BME280;4581;42.416;25.598;2023-04-23T02:34:45;67015.53;;;0.00;nan
9091;BME280;4581;42.416;25.598;2023-04-23T02:37:12;67015.53;;;0.00;nan
9091;BME280;4581;42.416;25.598;2023-04-23T02:39:39;67021.63;;;0.00;nan
9091;BME280;4581;42.416;25.598;2023-04-23T02:42:06;67020.09;;;0.00;nan
9091;BME280;4581;42.416;25.598;2023-04-23T02:44:32;67032.31;;;0.00;nan
9091;BME280;4581;42.416;25.598;2023-04-23T02:46:59;67026.22;;;0.00;nan
9091;BME280;4581;42.416;25.598;2023-04-23T02:49:26;67035.38;;;0.00;nan
9091;BME280;4581;42.416;25.598;2023-04-23T02:51:53;67036.88;;;0.00;nan
9091;BME280;4581;42.416;25.598;2023-04-23T02:54:20;67041.47;;;0.00;nan
9091;BME280;4581;42.416;25.598;2023-04-23T02:56:46;67039.94;;;0.00;nan
9091;BME280;4581;42.416;25.598;2023-04-23T02:59:14;67041.47;;;0.00;nan
9091;BME280;4581;42.416;25.598;2023-04-23T03:01:40;67044.53;;;0.00;nan
9091;BME280;4581;42.416;25.598;2023-04-23T03:04:07;67043.00;;;0.00;nan
9091;BME280;4581;42.416;25.598;2023-04-23T03:06:34;67044.53;;;0.00;nan
9091;BME280;4581;42.416;25.598;2023-04-23T03:09:02;67047.56;;;0.00;nan
9091;BME280;4581;42.416;25.598;2023-04-23T03:11:29;67047.56;;;0.00;nan
9091;BME280;4581;42.416;25.598;2023-04-23T03:13:56;67052.16;;;0.00;nan
9091;BME280;4581;42.416;25.598;2023-04-23T03:16:22;67047.56;;;0.00;nan
9091;BME280;4581;42.416;25.598;2023-04-23T03:18:49;67047.56;;;0.00;nan
9091;BME280;4581;42.416;25.598;2023-04-23T03:21:16;67049.09;;;0.00;nan
9091;BME280;4581;42.416;25.598;2023-04-23T03:23:43;67044.53;;;0.00;nan
9091;BME280;4581;42.416;25.598;2023-04-23T03:26:09;67044.53;;;0.00;nan
9091;BME280;4581;42.416;25.598;2023-04-23T03:28:36;67043.00;;;0.00;nan
9091;BME280;4581;42.416;25.598;2023-04-23T03:31:03;67041.47;;;0.00;nan
9091;BME280;4581;42.416;25.598;2023-04-23T03:33:29;67043.00;;;0.00;nan
9091;BME280;4581;42.416;25.598;2023-04-23T03:35:56;67036.88;;;0.00;nan
9091;BME280;4581;42.416;25.598;2023-04-23T03:38:23;67027.72;;;0.00;nan
9091;BME280;4581;42.416;25.598;2023-04-23T03:40:50;67020.09;;;0.00;nan
9091;BME280;4581;42.416;25.598;2023-04-23T03:43:17;67014.00;;;0.00;nan
9091;BME280;4581;42.416;25.598;2023-04-23T03:45:44;67010.94;;;0.00;nan
9091;BME280;4581;42.416;25.598;2023-04-23T03:48:10;67007.91;;;0.00;nan
9091;BME280;4581;42.416;25.598;2023-04-23T03:50:37;66995.69;;;0.00;nan
9091;BME280;4581;42.416;25.598;2023-04-23T03:53:06;66995.69;;;0.00;nan
9091;BME280;4581;42.416;25.598;2023-04-23T03:55:33;66981.97;;;0.00;nan
9091;BME280;4581;42.416;25.598;2023-04-23T03:58:01;66971.28;;;0.00;nan
9091;BME280;4581;42.416;25.598;2023-04-23T04:00:28;66968.22;;;0.00;nan
9091;BME280;4581;42.416;25.598;2023-04-23T04:02:55;66962.13;;;0.00;nan
9091;BME280;4581;42.416;25.598;2023-04-23T04:05:22;66962.13;;;0.00;nan
9091;BME280;4581;42.416;25.598;2023-04-23T04:07:49;66954.50;;;0.00;nan
9091;BME280;4581;42.416;25.598;2023-04-23T04:10:15;66943.81;;;0.00;nan
9091;BME280;4581;42.416;25.598;2023-04-23T04:12:42;66942.28;;;0.00;nan
9091;BME280;4581;42.416;25.598;2023-04-23T04:15:11;66937.72;;;0.00;nan
9091;BME280;4581;42.416;25.598;2023-04-23T04:17:38;66930.06;;;0.00;nan
9091;BME280;4581;42.416;25.598;2023-04-23T04:20:06;66925.50;;;0.00;nan
9091;BME280;4581;42.416;25.598;2023-04-23T04:22:36;66916.34;;;0.00;nan
9091;BME280;4581;42.416;25.598;2023-04-23T04:25:04;66905.66;;;0.00;nan
9091;BME280;4581;42.416;25.598;2023-04-23T04:27:31;66899.56;;;0.00;nan
9091;BME280;4581;42.416;25.598;2023-04-23T04:29:59;66896.50;;;0.00;nan
9091;BME280;4581;42.416;25.598;2023-04-23T04:32:31;66891.94;;;0.00;nan
9091;BME280;4581;42.416;25.598;2023-04-23T04:34:58;66881.25;;;0.00;nan
9091;BME280;4581;42.416;25.598;2023-04-23T04:37:24;66876.66;;;0.00;nan
9091;BME280;4581;42.416;25.598;2023-04-23T04:39:51;66867.50;;;0.00;nan
9091;BME280;4581;42.416;25.598;2023-04-23T04:42:19;66870.56;;;0.00;nan
9091;BME280;4581;42.416;25.598;2023-04-23T04:44:46;66873.63;;;0.00;nan
9091;BME280;4581;42.416;25.598;2023-04-23T04:47:13;66873.63;;;0.00;nan
9091;BME280;4581;42.416;25.598;2023-04-23T04:49:41;66873.63;;;0.00;nan
9091;BME280;4581;42.416;25.598;2023-04-23T04:52:08;66873.63;;;0.00;nan
9091;BME280;4581;42.416;25.598;2023-04-23T04:54:35;66869.03;;;0.00;nan
9091;BME280;4581;42.416;25.598;2023-04-23T04:57:01;66864.47;;;0.00;nan
9091;BME280;4581;42.416;25.598;2023-04-23T04:59:28;66864.47;;;0.00;nan
9091;BME280;4581;42.416;25.598;2023-04-23T05:01:55;66855.31;;;0.00;nan
9091;BME280;4581;42.416;25.598;2023-04-23T05:04:22;66856.84;;;0.00;nan
9091;BME280;4581;42.416;25.598;2023-04-23T05:06:49;66861.41;;;0.00;nan
9091;BME280;4581;42.416;25.598;2023-04-23T05:09:15;66866.00;;;0.00;nan
9091;BME280;4581;42.416;25.598;2023-04-23T05:11:42;66858.34;;;0.00;nan
9091;BME280;4581;42.416;25.598;2023-04-23T05:14:09;66843.09;;;0.00;nan
9091;BME280;4581;42.416;25.598;2023-04-23T05:16:36;66818.69;;;0.00;nan
9091;BME280;4581;42.416;25.598;2023-04-23T05:19:02;66798.84;;;0.00;nan
9091;BME280;4581;42.416;25.598;2023-04-23T05:21:29;66762.22;;;0.00;nan
9091;BME280;4581;42.416;25.598;2023-04-23T05:23:56;66737.81;;;0.00;nan
9091;BME280;4581;42.416;25.598;2023-04-23T05:26:23;66693.56;;;0.00;nan
9091;BME280;4581;42.416;25.598;2023-04-23T05:28:50;66670.69;;;0.00;nan
9091;BME280;4581;42.416;25.598;2023-04-23T05:31:16;66673.72;;;0.00;nan
9091;BME280;4581;42.416;25.598;2023-04-23T05:33:43;66646.25;;;0.00;nan
9091;BME280;4581;42.416;25.598;2023-04-23T05:36:16;66550.13;;;0.00;nan
9091;BME280;4581;42.416;25.598;2023-04-23T05:38:42;66527.25;;;0.00;nan
9091;BME280;4581;42.416;25.598;2023-04-23T05:41:09;66560.81;;;0.00;nan
9091;BME280;4581;42.416;25.598;2023-04-23T05:43:36;66470.78;;;0.00;nan
9091;BME280;4581;42.416;25.598;2023-04-23T05:46:03;66415.84;;;0.00;nan
9091;BME280;4581;42.416;25.598;2023-04-23T05:48:32;66397.53;;;0.00;nan
9091;BME280;4581;42.416;25.598;2023-04-23T05:50:59;66365.50;;;0.00;nan
9091;BME280;4581;42.416;25.598;2023-04-23T05:53:26;66345.66;;;0.00;nan
9091;BME280;4581;42.416;25.598;2023-04-23T05:55:53;66324.31;;;0.00;nan
9091;BME280;4581;42.416;25.598;2023-04-23T05:58:20;66350.25;;;0.00;nan
9091;BME280;4581;42.416;25.598;2023-04-23T06:00:47;66336.50;;;0.00;nan
9091;BME280;4581;42.416;25.598;2023-04-23T06:03:15;66315.16;;;0.00;nan
9091;BME280;4581;42.416;25.598;2023-04-23T06:05:42;66275.47;;;0.00;nan
9091;BME280;4581;42.416;25.598;2023-04-23T06:08:09;66266.31;;;0.00;nan
9091;BME280;4581;42.416;25.598;2023-04-23T06:10:35;66232.75;;;0.00;nan
9091;BME280;4581;42.416;25.598;2023-04-23T06:13:02;66220.53;;;0.00;nan
9091;BME280;4581;42.416;25.598;2023-04-23T06:15:29;66196.13;;;0.00;nan
9091;BME280;4581;42.416;25.598;2023-04-23T06:17:56;66168.66;;;0.00;nan
9091;BME280;4581;42.416;25.598;2023-04-23T06:20:23;66234.28;;;0.00;nan
9091;BME280;4581;42.416;25.598;2023-04-23T06:22:50;66208.34;;;0.00;nan
9091;BME280;4581;42.416;25.598;2023-04-23T06:25:17;66186.97;;;0.00;nan
9091;BME280;4581;42.416;25.598;2023-04-23T06:27:44;66162.56;;;0.00;nan
9091;BME280;4581;42.416;25.598;2023-04-23T06:30:11;66194.59;;;0.00;nan
9091;BME280;4581;42.416;25.598;2023-04-23T06:32:37;66176.28;;;0.00;nan
9091;BME280;4581;42.416;25.598;2023-04-23T06:35:05;66203.75;;;0.00;nan
9091;BME280;4581;42.416;25.598;2023-04-23T06:37:32;66203.75;;;0.00;nan
9091;BME280;4581;42.416;25.598;2023-04-23T06:39:59;66180.88;;;0.00;nan
9091;BME280;4581;42.416;25.598;2023-04-23T06:42:26;66208.34;;;0.00;nan
9091;BME280;4581;42.416;25.598;2023-04-23T06:44:53;66186.97;;;0.00;nan
9091;BME280;4581;42.416;25.598;2023-04-23T06:47:20;66154.94;;;0.00;nan
9091;BME280;4581;42.416;25.598;2023-04-23T06:49:46;66157.97;;;0.00;nan
9091;BME280;4581;42.416;25.598;2023-04-23T06:52:13;66156.44;;;0.00;nan
9091;BME280;4581;42.416;25.598;2023-04-23T06:54:40;66168.66;;;0.00;nan
9091;BME280;4581;42.416;25.598;2023-04-23T06:57:07;66171.72;;;0.00;nan
9091;BME280;4581;42.416;25.598;2023-04-23T06:59:33;66139.66;;;0.00;nan
9091;BME280;4581;42.416;25.598;2023-04-23T07:02:00;66154.94;;;0.00;nan
9091;BME280;4581;42.416;25.598;2023-04-23T07:04:27;66180.88;;;0.00;nan
9091;BME280;4581;42.416;25.598;2023-04-23T07:06:53;66165.59;;;0.00;nan
9091;BME280;4581;42.416;25.598;2023-04-23T07:09:20;66121.34;;;0.00;nan
9091;BME280;4581;42.416;25.598;2023-04-23T07:11:48;66167.13;;;0.00;nan
9091;BME280;4581;42.416;25.598;2023-04-23T07:14:15;66208.34;;;0.00;nan
9091;BME280;4581;42.416;25.598;2023-04-23T07:16:41;66211.38;;;0.00;nan
9091;BME280;4581;42.416;25.598;2023-04-23T07:19:08;66203.75;;;0.00;nan
9091;BME280;4581;42.416;25.598;2023-04-23T07:21:35;66193.06;;;0.00;nan
9091;BME280;4581;42.416;25.598;2023-04-23T07:24:02;66202.22;;;0.00;nan
9091;BME280;4581;42.416;25.598;2023-04-23T07:26:35;66182.38;;;0.00;nan
9091;BME280;4581;42.416;25.598;2023-04-23T07:29:03;66174.75;;;0.00;nan
9091;BME280;4581;42.416;25.598;2023-04-23T07:31:32;66180.88;;;0.00;nan
9091;BME280;4581;42.416;25.598;2023-04-23T07:33:59;66209.84;;;0.00;nan
9091;BME280;4581;42.416;25.598;2023-04-23T07:36:26;66200.69;;;0.00;nan
9091;BME280;4581;42.416;25.598;2023-04-23T07:38:53;66177.81;;;0.00;nan
9091;BME280;4581;42.416;25.598;2023-04-23T07:41:20;66185.44;;;0.00;nan
9091;BME280;4581;42.416;25.598;2023-04-23T07:43:46;66153.41;;;0.00;nan
9091;BME280;4581;42.416;25.598;2023-04-23T07:46:13;66162.56;;;0.00;nan
9091;BME280;4581;42.416;25.598;2023-04-23T07:48:40;66154.94;;;0.00;nan
9091;BME280;4581;42.416;25.598;2023-04-23T07:51:07;66125.94;;;0.00;nan
9091;BME280;4581;42.416;25.598;2023-04-23T07:53:34;66167.13;;;0.00;nan
9091;BME280;4581;42.416;25.598;2023-04-23T07:56:01;66220.53;;;0.00;nan
9091;BME280;4581;42.416;25.598;2023-04-23T07:58:27;66182.38;;;0.00;nan
9091;BME280;4581;42.416;25.598;2023-04-23T08:00:54;66168.66;;;0.00;nan
9091;BME280;4581;42.416;25.598;2023-04-23T08:03:21;66217.50;;;0.00;nan
9091;BME280;4581;42.416;25.598;2023-04-23T08:05:48;66226.66;;;0.00;nan
9091;BME280;4581;42.416;25.598;2023-04-23T08:08:14;66203.75;;;0.00;nan
9091;BME280;4581;42.416;25.598;2023-04-23T08:10:41;66200.69;;;0.00;nan
9091;BME280;4581;42.416;25.598;2023-04-23T08:13:08;66167.13;;;0.00;nan
9091;BME280;4581;42.416;25.598;2023-04-23T08:15:35;66176.28;;;0.00;nan
9091;BME280;4581;42.416;25.598;2023-04-23T08:18:02;66183.91;;;0.00;nan
9091;BME280;4581;42.416;25.598;2023-04-23T08:20:30;66167.13;;;0.00;nan
9091;BME280;4581;42.416;25.598;2023-04-23T08:22:58;66161.03;;;0.00;nan
9091;BME280;4581;42.416;25.598;2023-04-23T08:25:25;66144.25;;;0.00;nan
9091;BME280;4581;42.416;25.598;2023-04-23T08:27:51;66130.50;;;0.00;nan
9091;BME280;4581;42.416;25.598;2023-04-23T08:30:18;66154.94;;;0.00;nan
9091;BME280;4581;42.416;25.598;2023-04-23T08:32:48;66214.44;;;0.00;nan
9091;BME280;4581;42.416;25.598;2023-04-23T08:35:15;66209.84;;;0.00;nan
9091;BME280;4581;42.416;25.598;2023-04-23T08:37:42;66205.28;;;0.00;nan
9091;BME280;4581;42.416;25.598;2023-04-23T08:40:09;66196.13;;;0.00;nan
9091;BME280;4581;42.416;25.598;2023-04-23T08:42:57;66141.19;;;0.00;nan
9091;BME280;4581;42.416;25.598;2023-04-23T08:45:29;66135.09;;;0.00;nan
9091;BME280;4581;42.416;25.598;2023-04-23T08:47:59;66095.41;;;0.00;nan
9091;BME280;4581;42.416;25.598;2023-04-23T08:50:28;66133.56;;;0.00;nan
9091;BME280;4581;42.416;25.598;2023-04-23T08:52:56;66106.09;;;0.00;nan
9091;BME280;4581;42.416;25.598;2023-04-23T08:55:24;66130.50;;;0.00;nan
9091;BME280;4581;42.416;25.598;2023-04-23T08:57:51;66147.28;;;0.00;nan
9091;BME280;4581;42.416;25.598;2023-04-23T09:00:19;66154.94;;;0.00;nan
9091;BME280;4581;42.416;25.598;2023-04-23T09:02:48;66128.97;;;0.00;nan
9091;BME280;4581;42.416;25.598;2023-04-23T09:05:16;66144.25;;;0.00;nan
9091;BME280;4581;42.416;25.598;2023-04-23T09:07:43;66127.47;;;0.00;nan
9091;BME280;4581;42.416;25.598;2023-04-23T09:10:11;66101.53;;;0.00;nan
9091;BME280;4581;42.416;25.598;2023-04-23T09:12:41;66168.66;;;0.00;nan
9091;BME280;4581;42.416;25.598;2023-04-23T09:15:09;66165.59;;;0.00;nan
9091;BME280;4581;42.416;25.598;2023-04-23T09:17:38;66176.28;;;0.00;nan
9091;BME280;4581;42.416;25.598;2023-04-23T09:20:07;66133.56;;;0.00;nan
9091;BME280;4581;42.416;25.598;2023-04-23T09:22:47;66132.03;;;0.00;nan
9091;BME280;4581;42.416;25.598;2023-04-23T09:25:16;66165.59;;;0.00;nan
9091;BME280;4581;42.416;25.598;2023-04-23T09:27:44;66148.81;;;0.00;nan
9091;BME280;4581;42.416;25.598;2023-04-23T09:30:12;66095.41;;;0.00;nan
9091;BME280;4581;42.416;25.598;2023-04-23T09:32:41;66086.25;;;0.00;nan
9091;BME280;4581;42.416;25.598;2023-04-23T09:35:12;66058.78;;;0.00;nan
9091;BME280;4581;42.416;25.598;2023-04-23T09:37:44;66052.69;;;0.00;nan
9091;BME280;4581;42.416;25.598;2023-04-23T09:40:16;66043.53;;;0.00;nan
9091;BME280;4581;42.416;25.598;2023-04-23T09:42:48;66075.56;;;0.00;nan
9091;BME280;4581;42.416;25.598;2023-04-23T09:45:15;66038.97;;;0.00;nan
9091;BME280;4581;42.416;25.598;2023-04-23T09:47:50;66049.63;;;0.00;nan
9091;BME280;4581;42.416;25.598;2023-04-23T09:50:19;66037.44;;;0.00;nan
9091;BME280;4581;42.416;25.598;2023-04-23T09:52:52;66002.34;;;0.00;nan
9091;BME280;4581;42.416;25.598;2023-04-23T09:55:29;65982.50;;;0.00;nan
9091;BME280;4581;42.416;25.598;2023-04-23T09:58:01;66023.69;;;0.00;nan
9091;BME280;4581;42.416;25.598;2023-04-23T10:00:36;65973.34;;;0.00;nan
9091;BME280;4581;42.416;25.598;2023-04-23T10:03:04;65997.75;;;0.00;nan
9091;BME280;4581;42.416;25.598;2023-04-23T10:05:40;65982.50;;;0.00;nan
9091;BME280;4581;42.416;25.598;2023-04-23T10:08:10;65951.97;;;0.00;nan
9091;BME280;4581;42.416;25.598;2023-04-23T10:10:39;65926.03;;;0.00;nan
9091;BME280;4581;42.416;25.598;2023-04-23T10:13:22;65927.56;;;0.00;nan
9091;BME280;4581;42.416;25.598;2023-04-23T10:15:50;65915.38;;;0.00;nan
9091;BME280;4581;42.416;25.598;2023-04-23T10:18:18;65900.09;;;0.00;nan
9091;BME280;4581;42.416;25.598;2023-04-23T10:20:46;65894.00;;;0.00;nan
9091;BME280;4581;42.416;25.598;2023-04-23T10:23:13;65890.94;;;0.00;nan
9091;BME280;4581;42.416;25.598;2023-04-23T10:25:41;65875.69;;;0.00;nan
9091;BME280;4581;42.416;25.598;2023-04-23T10:28:08;65924.50;;;0.00;nan
9091;BME280;4581;42.416;25.598;2023-04-23T10:30:38;65958.09;;;0.00;nan
9091;BME280;4581;42.416;25.598;2023-04-23T10:33:06;65939.78;;;0.00;nan
9091;BME280;4581;42.416;25.598;2023-04-23T10:35:41;65951.97;;;0.00;nan
9091;BME280;4581;42.416;25.598;2023-04-23T10:38:08;65945.88;;;0.00;nan
9091;BME280;4581;42.416;25.598;2023-04-23T10:40:36;65939.78;;;0.00;nan
9091;BME280;4581;42.416;25.598;2023-04-23T10:43:06;65930.63;;;0.00;nan
9091;BME280;4581;42.416;25.598;2023-04-23T10:45:32;65971.81;;;0.00;nan
9091;BME280;4581;42.416;25.598;2023-04-23T10:47:59;65959.63;;;0.00;nan
9091;BME280;4581;42.416;25.598;2023-04-23T10:50:28;65936.72;;;0.00;nan
9091;BME280;4581;42.416;25.598;2023-04-23T10:52:56;65933.66;;;0.00;nan
9091;BME280;4581;42.416;25.598;2023-04-23T10:55:25;65912.31;;;0.00;nan
9091;BME280;4581;42.416;25.598;2023-04-23T10:57:56;65909.25;;;0.00;nan
9091;BME280;4581;42.416;25.598;2023-04-23T11:00:38;65918.41;;;0.00;nan
9091;BME280;4581;42.416;25.598;2023-04-23T11:03:42;65938.25;;;0.00;nan
9091;BME280;4581;42.416;25.598;2023-04-23T11:12:01;65903.16;;;0.00;nan
9091;BME280;4581;42.416;25.598;2023-04-23T11:14:41;65878.75;;;0.00;nan
9091;BME280;4581;42.416;25.598;2023-04-23T11:17:12;65900.09;;;0.00;nan
9091;BME280;4581;42.416;25.598;2023-04-23T11:19:40;65906.22;;;0.00;nan
9091;BME280;4581;42.416;25.598;2023-04-23T11:22:14;65903.16;;;0.00;nan
9091;BME280;4581;42.416;25.598;2023-04-23T11:24:43;65898.56;;;0.00;nan
9091;BME280;4581;42.416;25.598;2023-04-23T11:27:15;65884.84;;;0.00;nan
9091;BME280;4581;42.416;25.598;2023-04-23T11:29:44;65848.22;;;0.00;nan
9091;BME280;4581;42.416;25.598;2023-04-23T11:32:15;65836.00;;;0.00;nan
9091;BME280;4581;42.416;25.598;2023-04-23T11:34:44;65828.38;;;0.00;nan
9091;BME280;4581;42.416;25.598;2023-04-23T11:37:12;65808.56;;;0.00;nan
9091;BME280;4581;42.416;25.598;2023-04-23T11:39:41;65860.44;;;0.00;nan
9091;BME280;4581;42.416;25.598;2023-04-23T11:42:10;65875.69;;;0.00;nan
9091;BME280;4581;42.416;25.598;2023-04-23T11:44:37;65869.59;;;0.00;nan
9091;BME280;4581;42.416;25.598;2023-04-23T11:47:13;65868.06;;;0.00;nan
9091;BME280;4581;42.416;25.598;2023-04-23T11:49:41;65857.38;;;0.00;nan
9091;BME280;4581;42.416;25.598;2023-04-23T11:52:09;65881.78;;;0.00;nan
9091;BME280;4581;42.416;25.598;2023-04-23T11:54:39;65890.94;;;0.00;nan
9091;BME280;4581;42.416;25.598;2023-04-23T11:57:06;65869.59;;;0.00;nan
9091;BME280;4581;42.416;25.598;2023-04-23T11:59:33;65829.91;;;0.00;nan
9091;BME280;4581;42.416;25.598;2023-04-23T12:02:00;65820.75;;;0.00;nan
9091;BME280;4581;42.416;25.598;2023-04-23T12:04:28;65816.19;;;0.00;nan
9091;BME280;4581;42.416;25.598;2023-04-23T12:06:57;65822.28;;;0.00;nan
9091;BME280;4581;42.416;25.598;2023-04-23T12:09:26;65807.03;;;0.00;nan
9091;BME280;4581;42.416;25.598;2023-04-23T12:11:55;65797.88;;;0.00;nan
9091;BME280;4581;42.416;25.598;2023-04-23T12:14:26;65765.81;;;0.00;nan
9091;BME280;4581;42.416;25.598;2023-04-23T12:16:55;65756.66;;;0.00;nan
9091;BME280;4581;42.416;25.598;2023-04-23T12:19:27;65840.59;;;0.00;nan
9091;BME280;4581;42.416;25.598;2023-04-23T12:21:59;65823.81;;;0.00;nan
9091;BME280;4581;42.416;25.598;2023-04-23T12:24:29;65823.81;;;0.00;nan
9091;BME280;4581;42.416;25.598;2023-04-23T12:26:58;65839.06;;;0.00;nan
9091;BME280;4581;42.416;25.598;2023-04-23T12:29:28;65826.84;;;0.00;nan
9091;BME280;4581;42.416;25.598;2023-04-23T12:34:23;65836.00;;;0.00;nan
9091;BME280;4581;42.416;25.598;2023-04-23T12:36:52;65845.16;;;0.00;nan
9091;BME280;4581;42.416;25.598;2023-04-23T12:42:02;65912.31;;;0.00;nan
9091;BME280;4581;42.416;25.598;2023-04-23T12:44:31;65903.16;;;0.00;nan
9091;BME280;4581;42.416;25.598;2023-04-23T12:47:07;65897.06;;;0.00;nan
9091;BME280;4581;42.416;25.598;2023-04-23T12:49:35;65923.00;;;0.00;nan
9091;BME280;4581;42.416;25.598;2023-04-23T12:52:03;65939.78;;;0.00;nan
9091;BME280;4581;42.416;25.598;2023-04-23T12:54:36;65929.09;;;0.00;nan
9091;BME280;4581;42.416;25.598;2023-04-23T12:57:09;65947.41;;;0.00;nan
9091;BME280;4581;42.416;25.598;2023-04-23T12:59:36;65942.81;;;0.00;nan
9091;BME280;4581;42.416;25.598;2023-04-23T13:02:04;65939.78;;;0.00;nan
9091;BME280;4581;42.416;25.598;2023-04-23T13:04:34;65941.31;;;0.00;nan
9091;BME280;4581;42.416;25.598;2023-04-23T13:07:01;65942.81;;;0.00;nan
9091;BME280;4581;42.416;25.598;2023-04-23T13:09:28;65948.94;;;0.00;nan
9091;BME280;4581;42.416;25.598;2023-04-23T13:11:55;65961.13;;;0.00;nan
9091;BME280;4581;42.416;25.598;2023-04-23T13:14:22;65965.72;;;0.00;nan
9091;BME280;4581;42.416;25.598;2023-04-23T13:16:49;65939.78;;;0.00;nan
9091;BME280;4581;42.416;25.598;2023-04-23T13:19:16;65936.72;;;0.00;nan
9091;BME280;4581;42.416;25.598;2023-04-23T13:21:43;65941.31;;;0.00;nan
9091;BME280;4581;42.416;25.598;2023-04-23T13:24:10;65951.97;;;0.00;nan
9091;BME280;4581;42.416;25.598;2023-04-23T13:26:37;65967.25;;;0.00;nan
9091;BME280;4581;42.416;25.598;2023-04-23T13:29:03;66009.97;;;0.00;nan
9091;BME280;4581;42.416;25.598;2023-04-23T13:31:30;66003.88;;;0.00;nan
9091;BME280;4581;42.416;25.598;2023-04-23T13:33:57;65994.72;;;0.00;nan
9091;BME280;4581;42.416;25.598;2023-04-23T13:36:24;65988.59;;;0.00;nan
9091;BME280;4581;42.416;25.598;2023-04-23T13:38:51;66006.91;;;0.00;nan
9091;BME280;4581;42.416;25.598;2023-04-23T13:41:18;66022.16;;;0.00;nan
9091;BME280;4581;42.416;25.598;2023-04-23T13:43:44;66006.91;;;0.00;nan
9091;BME280;4581;42.416;25.598;2023-04-23T13:46:11;66009.97;;;0.00;nan
9091;BME280;4581;42.416;25.598;2023-04-23T13:48:40;65991.66;;;0.00;nan
9091;BME280;4581;42.416;25.598;2023-04-23T13:51:07;66008.44;;;0.00;nan
9091;BME280;4581;42.416;25.598;2023-04-23T13:53:47;66034.38;;;0.00;nan
9091;BME280;4581;42.416;25.598;2023-04-23T13:56:13;66040.47;;;0.00;nan
9091;BME280;4581;42.416;25.598;2023-04-23T13:58:40;66043.53;;;0.00;nan
9091;BME280;4581;42.416;25.598;2023-04-23T14:01:10;66042.00;;;0.00;nan